createdAt,value
2023-05-08T00:00:09.155Z,15.95
2023-05-08T00:02:36.668Z,15.68
2023-05-08T00:05:04.311Z,14.23
2023-05-08T00:07:31.794Z,15.52
2023-05-08T00:09:59.175Z,15.30
2023-05-08T00:12:26.684Z,14.77
2023-05-08T00:14:54.066Z,16.42
2023-05-08T00:17:21.521Z,14.82
2023-05-08T00:19:49.076Z,14.30
2023-05-08T00:22:16.548Z,14.63
2023-05-08T00:24:44.541Z,15.68
2023-05-08T00:27:13.087Z,15.07
2023-05-08T00:29:40.602Z,14.75
2023-05-08T00:32:10.947Z,15.02
2023-05-08T00:34:38.634Z,15.05
2023-05-08T00:37:06.274Z,16.23
2023-05-08T00:39:33.684Z,15.25
2023-05-08T00:42:01.218Z,16.02
2023-05-08T00:44:28.697Z,16.40
2023-05-08T00:46:56.112Z,14.45
2023-05-08T00:49:23.776Z,15.25
2023-05-08T00:51:52.603Z,16.13
2023-05-08T00:54:20.433Z,16.40
2023-05-08T00:56:47.965Z,16.75
2023-05-08T00:59:16.991Z,17.85
2023-05-08T01:01:45.033Z,17.70
2023-05-08T01:04:12.480Z,17.80
2023-05-08T01:06:40.095Z,18.48
2023-05-08T01:09:07.958Z,19.00
2023-05-08T01:11:45.779Z,18.60
2023-05-08T01:14:15.838Z,17.90
2023-05-08T01:17:06.534Z,20.52
2023-05-08T01:19:40.084Z,19.02
2023-05-08T01:24:53.069Z,20.13
2023-05-08T01:27:39.514Z,19.08
2023-05-08T01:30:07.213Z,19.60
2023-05-08T01:32:40.284Z,18.55
2023-05-08T01:35:13.752Z,19.70
2023-05-08T01:38:00.195Z,19.58
2023-05-08T01:40:35.915Z,19.25
2023-05-08T01:43:22.332Z,19.83
2023-05-08T01:45:52.530Z,20.15
2023-05-08T01:48:25.654Z,20.27
2023-05-08T01:50:56.209Z,20.90
2023-05-08T01:53:52.846Z,21.83
2023-05-08T01:56:22.883Z,20.67
2023-05-08T01:58:52.834Z,20.38
2023-05-08T02:01:23.237Z,19.92
2023-05-08T02:03:52.849Z,21.25
2023-05-08T02:06:21.972Z,19.55
2023-05-08T02:08:50.073Z,22.88
2023-05-08T02:11:19.057Z,23.08
2023-05-08T02:13:48.517Z,22.70
2023-05-08T02:16:16.620Z,21.08
2023-05-08T02:18:45.444Z,22.13
2023-05-08T02:21:15.356Z,23.15
2023-05-08T02:23:44.358Z,22.63
2023-05-08T02:26:12.492Z,21.13
2023-05-08T02:28:40.933Z,22.42
2023-05-08T02:31:09.597Z,22.98
2023-05-08T02:33:37.769Z,20.60
2023-05-08T02:36:05.512Z,23.70
2023-05-08T02:38:33.757Z,23.33
2023-05-08T02:41:02.951Z,24.40
2023-05-08T02:43:30.463Z,23.20
2023-05-08T02:46:19.334Z,23.50
2023-05-08T02:48:46.579Z,23.38
2023-05-08T02:51:16.969Z,23.33
2023-05-08T02:53:51.935Z,22.23
2023-05-08T02:56:23.063Z,23.45
2023-05-08T02:59:01.775Z,21.65
2023-05-08T03:01:32.647Z,22.70
2023-05-08T03:04:00.381Z,26.15
2023-05-08T03:06:27.998Z,24.50
2023-05-08T03:08:57.983Z,24.95
2023-05-08T03:11:29.111Z,23.58
2023-05-08T03:13:57.875Z,23.00
2023-05-08T03:16:26.656Z,22.83
2023-05-08T03:18:59.637Z,21.88
2023-05-08T03:21:28.740Z,21.38
2023-05-08T03:23:57.943Z,21.35
2023-05-08T03:26:26.250Z,21.95
2023-05-08T03:28:54.485Z,22.15
2023-05-08T03:31:26.607Z,19.65
2023-05-08T03:33:54.996Z,20.20
2023-05-08T03:36:25.096Z,20.95
2023-05-08T03:38:52.467Z,19.55
2023-05-08T03:41:22.606Z,19.55
2023-05-08T03:43:50.912Z,19.65
2023-05-08T03:46:18.986Z,21.50
2023-05-08T03:48:47.788Z,22.35
2023-05-08T03:51:19.622Z,19.63
2023-05-08T03:53:47.049Z,21.08
2023-05-08T03:56:15.000Z,21.48
2023-05-08T03:58:49.137Z,21.55
2023-05-08T04:01:24.667Z,22.38
2023-05-08T04:04:31.558Z,21.13
2023-05-08T04:07:11.725Z,19.83
2023-05-08T04:09:59.407Z,20.40
2023-05-08T04:13:08.794Z,20.63
2023-05-08T04:16:01.005Z,19.65
2023-05-08T04:18:30.428Z,18.42
2023-05-08T04:21:03.298Z,21.55
2023-05-08T04:23:31.594Z,21.63
2023-05-08T04:26:01.660Z,20.23
2023-05-08T04:28:29.761Z,19.63
2023-05-08T04:30:57.710Z,20.15
2023-05-08T04:33:25.174Z,20.75
2023-05-08T04:35:52.760Z,19.88
2023-05-08T04:38:19.937Z,19.55
2023-05-08T04:40:47.148Z,20.00
2023-05-08T04:43:14.251Z,20.88
2023-05-08T04:45:41.532Z,19.92
2023-05-08T04:48:08.839Z,19.60
2023-05-08T04:50:35.967Z,19.70
2023-05-08T04:53:02.877Z,18.95
2023-05-08T04:55:30.265Z,19.02
2023-05-08T04:57:57.594Z,21.13
2023-05-08T05:00:24.423Z,19.98
2023-05-08T05:02:52.375Z,19.17
2023-05-08T05:05:19.521Z,21.10
2023-05-08T05:07:46.793Z,21.27
2023-05-08T05:10:15.134Z,22.25
2023-05-08T05:12:42.296Z,22.25
2023-05-08T05:15:10.392Z,21.33
2023-05-08T05:17:38.935Z,20.40
2023-05-08T05:20:08.774Z,22.05
2023-05-08T05:22:36.124Z,19.38
2023-05-08T05:25:03.930Z,22.85
2023-05-08T05:27:30.970Z,21.10
2023-05-08T05:30:01.376Z,19.13
2023-05-08T05:32:28.647Z,19.70
2023-05-08T05:34:56.611Z,20.60
2023-05-08T05:37:23.675Z,19.13
2023-05-08T05:39:51.732Z,20.50
2023-05-08T05:42:19.574Z,23.52
2023-05-08T05:44:46.848Z,19.50
2023-05-08T05:47:14.425Z,20.80
2023-05-08T05:49:46.857Z,22.50
2023-05-08T05:52:15.158Z,22.73
2023-05-08T05:54:42.677Z,18.63
2023-05-08T05:57:11.219Z,17.00
2023-05-08T05:59:38.511Z,14.68
2023-05-08T06:02:10.514Z,17.52
2023-05-08T06:04:41.554Z,16.80
2023-05-08T06:07:10.662Z,15.10
2023-05-08T06:09:37.725Z,14.20
2023-05-08T06:12:08.454Z,13.35
2023-05-08T06:14:35.838Z,12.00
2023-05-08T06:17:03.059Z,13.98
2023-05-08T06:19:31.272Z,12.55
2023-05-08T06:21:58.256Z,14.38
2023-05-08T06:24:25.456Z,13.43
2023-05-08T06:26:52.266Z,12.85
2023-05-08T06:29:19.103Z,11.75
2023-05-08T06:31:46.557Z,10.65
2023-05-08T06:34:13.783Z,15.50
2023-05-08T06:36:41.417Z,10.48
2023-05-08T06:39:08.604Z,10.93
2023-05-08T06:41:35.456Z,10.52
2023-05-08T06:44:02.321Z,12.10
2023-05-08T06:46:29.931Z,11.32
2023-05-08T06:48:57.150Z,12.18
2023-05-08T06:51:24.065Z,10.77
2023-05-08T06:53:51.063Z,11.50
2023-05-08T06:56:17.981Z,12.07
2023-05-08T06:58:48.389Z,12.10
2023-05-08T07:01:21.077Z,8.63
2023-05-08T07:03:48.160Z,12.85
2023-05-08T07:06:15.323Z,12.63
2023-05-08T07:08:42.505Z,13.40
2023-05-08T07:11:10.268Z,13.00
2023-05-08T07:13:37.332Z,13.48
2023-05-08T07:16:10.902Z,14.05
2023-05-08T07:18:38.510Z,16.65
2023-05-08T07:21:06.029Z,17.55
2023-05-08T07:23:36.985Z,21.60
2023-05-08T07:26:11.141Z,21.55
2023-05-08T07:28:42.327Z,21.90
2023-05-08T07:31:09.358Z,23.30
2023-05-08T07:33:36.563Z,22.38
2023-05-08T07:36:03.751Z,23.77
2023-05-08T07:38:31.039Z,23.10
2023-05-08T07:40:59.580Z,22.23
2023-05-08T07:43:26.673Z,21.05
2023-05-08T07:45:53.949Z,23.33
2023-05-08T07:48:21.179Z,23.10
2023-05-08T07:50:50.296Z,24.52
2023-05-08T07:53:17.630Z,24.85
2023-05-08T07:55:44.521Z,22.85
2023-05-08T07:58:11.515Z,22.75
2023-05-08T08:00:39.682Z,22.75
2023-05-08T08:03:07.340Z,23.45
2023-05-08T08:05:34.474Z,22.38
2023-05-08T08:08:01.520Z,22.33
2023-05-08T08:10:31.640Z,22.02
2023-05-08T08:13:06.829Z,22.27
2023-05-08T08:15:36.646Z,24.73
2023-05-08T08:18:03.575Z,25.90
2023-05-08T08:20:30.702Z,23.75
2023-05-08T08:22:58.154Z,25.33
2023-05-08T08:25:25.544Z,26.38
2023-05-08T08:27:54.892Z,22.92
2023-05-08T08:30:22.058Z,24.70
2023-05-08T08:32:49.399Z,25.45
2023-05-08T08:35:16.888Z,24.33
2023-05-08T08:37:44.646Z,23.92
2023-05-08T08:40:12.239Z,21.95
2023-05-08T08:42:39.465Z,23.88
2023-05-08T08:45:07.196Z,23.55
2023-05-08T08:47:38.061Z,24.95
2023-05-08T08:50:06.952Z,22.42
2023-05-08T08:53:00.541Z,23.05
2023-05-08T08:55:29.094Z,21.73
2023-05-08T08:57:59.073Z,19.33
2023-05-08T09:00:30.099Z,22.25
2023-05-08T09:02:57.561Z,20.60
2023-05-08T09:05:26.591Z,19.92
2023-05-08T09:07:57.535Z,21.70
2023-05-08T09:10:25.730Z,20.45
2023-05-08T09:13:06.076Z,19.20
2023-05-08T09:15:33.964Z,20.40
2023-05-08T09:18:04.341Z,21.80
2023-05-08T09:20:35.678Z,20.60
2023-05-08T09:23:03.682Z,18.70
2023-05-08T09:26:03.310Z,21.58
2023-05-08T09:28:30.424Z,22.33
2023-05-08T09:30:59.796Z,21.27
2023-05-08T09:33:29.784Z,23.52
2023-05-08T09:35:57.878Z,21.20
2023-05-08T09:38:37.739Z,21.40
2023-05-08T09:41:16.403Z,21.05
2023-05-08T09:43:44.924Z,20.83
2023-05-08T09:46:27.486Z,19.35
2023-05-08T09:49:00.303Z,17.63
2023-05-08T09:51:29.772Z,16.53
2023-05-08T09:53:59.157Z,16.15
2023-05-08T09:56:30.079Z,17.02
2023-05-08T09:58:57.097Z,17.15
2023-05-08T10:01:31.661Z,16.17
2023-05-08T10:03:59.456Z,14.00
2023-05-08T10:06:28.740Z,13.05
2023-05-08T10:09:17.471Z,13.73
2023-05-08T10:11:52.434Z,14.10
2023-05-08T10:14:23.138Z,11.82
2023-05-08T10:16:53.021Z,12.13
2023-05-08T10:19:25.220Z,9.80
2023-05-08T10:21:55.122Z,11.85
2023-05-08T10:24:27.036Z,10.52
2023-05-08T10:27:08.948Z,11.13
2023-05-08T10:29:51.164Z,11.32
2023-05-08T10:32:20.629Z,11.18
2023-05-08T10:34:53.127Z,11.88
2023-05-08T10:37:20.467Z,10.68
2023-05-08T10:39:48.614Z,11.23
2023-05-08T10:42:15.953Z,11.02
2023-05-08T10:44:44.746Z,11.57
2023-05-08T10:47:39.480Z,12.45
2023-05-08T10:50:34.273Z,11.57
2023-05-08T10:53:11.926Z,11.85
2023-05-08T10:55:42.481Z,12.30
2023-05-08T10:58:31.818Z,12.43
2023-05-08T11:01:07.428Z,10.90
2023-05-08T11:03:50.890Z,12.65
2023-05-08T11:06:39.067Z,12.80
2023-05-08T11:09:11.944Z,10.48
2023-05-08T11:11:39.510Z,12.38
2023-05-08T11:14:13.773Z,11.65
2023-05-08T11:17:04.962Z,13.02
2023-05-08T11:19:32.195Z,12.65
2023-05-08T11:22:11.739Z,13.95
2023-05-08T11:24:53.826Z,12.52
2023-05-08T11:27:33.771Z,11.95
2023-05-08T11:30:24.525Z,12.93
2023-05-08T11:33:04.028Z,11.90
2023-05-08T11:35:47.372Z,11.75
2023-05-08T11:38:21.826Z,11.52
2023-05-08T11:41:04.239Z,11.88
2023-05-08T11:43:44.259Z,11.18
2023-05-08T11:46:19.657Z,11.27
2023-05-08T11:48:51.453Z,10.13
2023-05-08T11:51:21.843Z,10.50
2023-05-08T11:53:49.062Z,9.90
2023-05-08T11:56:16.204Z,10.00
2023-05-08T11:58:43.676Z,9.95
2023-05-08T12:01:12.777Z,10.18
2023-05-08T12:03:40.122Z,9.32
2023-05-08T12:06:07.654Z,10.02
2023-05-08T12:08:39.410Z,10.15
2023-05-08T12:11:07.739Z,10.25
2023-05-08T12:13:34.887Z,14.10
2023-05-08T12:16:02.156Z,12.07
2023-05-08T12:18:30.858Z,15.25
2023-05-08T12:21:01.472Z,9.63
2023-05-08T12:23:31.062Z,8.57
2023-05-08T12:26:05.173Z,6.90
2023-05-08T12:28:35.074Z,6.88
2023-05-08T12:31:02.592Z,8.93
2023-05-08T12:33:31.800Z,9.00
2023-05-08T12:35:58.891Z,8.82
2023-05-08T12:38:29.825Z,8.30
2023-05-08T12:40:56.875Z,8.40
2023-05-08T12:43:37.722Z,9.02
2023-05-08T12:46:05.558Z,8.93
2023-05-08T12:48:32.652Z,7.07
2023-05-08T12:51:04.811Z,9.20
2023-05-08T12:53:33.140Z,7.22
2023-05-08T12:56:04.998Z,8.85
2023-05-08T12:58:34.709Z,7.97
2023-05-08T13:01:13.245Z,7.63
2023-05-08T13:03:41.316Z,7.20
2023-05-08T13:06:21.093Z,7.55
2023-05-08T13:08:55.189Z,6.88
2023-05-08T13:11:33.247Z,6.20
2023-05-08T13:14:00.692Z,5.63
2023-05-08T13:16:27.754Z,5.55
2023-05-08T13:18:58.081Z,5.25
2023-05-08T13:21:27.649Z,4.68
2023-05-08T13:23:56.582Z,4.28
2023-05-08T13:26:24.652Z,4.32
2023-05-08T13:28:52.970Z,4.43
2023-05-08T13:31:21.765Z,4.80
2023-05-08T13:33:51.808Z,5.72
2023-05-08T13:36:18.945Z,5.07
2023-05-08T13:38:49.097Z,5.13
2023-05-08T13:41:26.767Z,5.10
2023-05-08T13:43:53.765Z,5.20
2023-05-08T13:46:21.157Z,5.25
2023-05-08T13:48:48.256Z,4.75
2023-05-08T13:51:18.671Z,4.43
2023-05-08T13:53:45.760Z,4.85
2023-05-08T13:56:18.153Z,4.63
2023-05-08T13:58:45.182Z,5.05
2023-05-08T14:01:25.728Z,5.60
2023-05-08T14:03:54.862Z,4.32
2023-05-08T14:06:22.746Z,4.32
2023-05-08T14:08:52.787Z,4.45
2023-05-08T14:11:22.337Z,4.50
2023-05-08T14:13:49.544Z,3.80
2023-05-08T14:16:16.675Z,4.25
2023-05-08T14:18:44.040Z,3.90
2023-05-08T14:21:11.002Z,3.40
2023-05-08T14:23:38.815Z,4.05
2023-05-08T14:26:05.972Z,3.05
2023-05-08T14:28:33.266Z,4.60
2023-05-08T14:31:03.837Z,3.78
2023-05-08T14:33:31.076Z,4.35
2023-05-08T14:35:58.071Z,3.50
2023-05-08T14:38:25.395Z,4.15
2023-05-08T14:40:54.415Z,3.38
2023-05-08T14:43:22.352Z,3.70
2023-05-08T14:45:49.860Z,2.78
2023-05-08T14:48:16.937Z,3.65
2023-05-08T14:50:44.049Z,3.65
2023-05-08T14:53:11.366Z,3.80
2023-05-08T14:55:38.822Z,3.67
2023-05-08T14:58:06.642Z,4.45
2023-05-08T15:00:33.762Z,5.45
2023-05-08T15:03:01.117Z,5.72
2023-05-08T15:05:28.520Z,6.40
2023-05-08T15:07:55.603Z,5.75
2023-05-08T15:10:22.817Z,5.05
2023-05-08T15:12:50.467Z,6.35
2023-05-08T15:15:17.676Z,6.57
2023-05-08T15:17:44.851Z,5.97
2023-05-08T15:20:12.090Z,7.38
2023-05-08T15:22:41.626Z,7.10
2023-05-08T15:25:08.924Z,7.80
2023-05-08T15:27:36.353Z,7.50
2023-05-08T15:30:04.704Z,7.65
2023-05-08T15:32:32.975Z,7.28
2023-05-08T15:34:59.938Z,7.03
2023-05-08T15:37:27.476Z,6.95
2023-05-08T15:39:54.347Z,8.98
2023-05-08T15:42:21.368Z,7.68
2023-05-08T15:47:19.464Z,6.90
2023-05-08T15:49:49.252Z,7.95
2023-05-08T15:52:19.737Z,7.13
2023-05-08T15:54:47.556Z,6.90
2023-05-08T15:57:14.821Z,7.25
2023-05-08T15:59:41.901Z,7.47
2023-05-08T16:02:10.347Z,7.85
2023-05-08T16:04:37.463Z,7.90
2023-05-08T16:07:09.927Z,6.65
2023-05-08T16:09:37.058Z,6.35
2023-05-08T16:12:05.765Z,6.75
2023-05-08T16:14:36.830Z,7.15
2023-05-08T16:17:09.326Z,7.72
2023-05-08T16:19:40.871Z,5.47
2023-05-08T16:22:08.014Z,5.78
2023-05-08T16:24:34.871Z,6.45
2023-05-08T16:27:01.902Z,6.28
2023-05-08T16:29:28.726Z,5.85
2023-05-08T16:31:56.376Z,7.78
2023-05-08T16:34:23.284Z,6.70
2023-05-08T16:36:50.485Z,8.38
2023-05-08T16:39:17.529Z,8.02
2023-05-08T16:41:44.704Z,8.35
2023-05-08T16:44:12.509Z,6.25
2023-05-08T16:46:39.499Z,6.82
2023-05-08T16:49:06.544Z,7.88
2023-05-08T16:51:33.407Z,6.88
2023-05-08T16:54:00.631Z,6.72
2023-05-08T16:56:27.469Z,6.78
2023-05-08T16:58:54.412Z,6.93
2023-05-08T17:01:21.529Z,7.28
2023-05-08T17:03:48.500Z,6.15
2023-05-08T17:06:15.356Z,6.78
2023-05-08T17:08:42.375Z,6.47
2023-05-08T17:11:09.177Z,5.70
2023-05-08T17:13:36.081Z,6.28
2023-05-08T17:16:05.302Z,4.97
2023-05-08T17:18:32.438Z,4.90
2023-05-08T17:20:59.306Z,5.88
2023-05-08T17:23:26.149Z,6.40
2023-05-08T17:26:00.226Z,5.65
2023-05-08T17:28:27.184Z,5.47
2023-05-08T17:30:54.386Z,5.75
2023-05-08T17:33:21.219Z,6.38
2023-05-08T17:35:48.204Z,6.40
2023-05-08T17:38:15.034Z,5.40
2023-05-08T17:40:41.914Z,5.85
2023-05-08T17:43:08.817Z,5.97
2023-05-08T17:45:35.635Z,5.75
2023-05-08T17:48:04.431Z,6.22
2023-05-08T17:50:31.340Z,5.95
2023-05-08T17:52:58.220Z,6.07
2023-05-08T17:55:25.197Z,6.90
2023-05-08T17:57:53.383Z,6.68
2023-05-08T18:00:20.325Z,6.05
2023-05-08T18:02:47.203Z,6.68
2023-05-08T18:05:15.826Z,7.15
2023-05-08T18:07:46.720Z,5.53
2023-05-08T18:10:13.824Z,5.93
2023-05-08T18:12:40.886Z,5.93
2023-05-08T18:15:08.323Z,6.57
2023-05-08T18:17:35.266Z,6.07
2023-05-08T18:20:07.592Z,7.15
2023-05-08T18:22:35.056Z,6.05
2023-05-08T18:25:02.112Z,5.75
2023-05-08T18:27:29.125Z,6.72
2023-05-08T18:29:55.973Z,6.60
2023-05-08T18:32:23.049Z,7.78
2023-05-08T18:34:49.995Z,7.45
2023-05-08T18:37:16.937Z,6.93
2023-05-08T18:39:43.783Z,6.68
2023-05-08T18:42:11.365Z,6.25
2023-05-08T18:44:38.170Z,7.68
2023-05-08T18:47:05.557Z,5.25
2023-05-08T18:49:32.826Z,4.97
2023-05-08T18:51:59.752Z,5.38
2023-05-08T18:54:26.974Z,5.50
2023-05-08T18:56:54.428Z,4.80
2023-05-08T18:59:21.905Z,4.13
2023-05-08T19:01:50.604Z,5.00
2023-05-08T19:04:18.128Z,4.47
2023-05-08T19:06:45.194Z,4.43
2023-05-08T19:09:12.034Z,4.68
2023-05-08T19:11:38.881Z,4.97
2023-05-08T19:14:05.777Z,4.85
2023-05-08T19:16:32.825Z,4.40
2023-05-08T19:18:59.716Z,4.43
2023-05-08T19:21:26.520Z,3.85
2023-05-08T19:23:53.270Z,3.78
2023-05-08T19:26:21.700Z,4.85
2023-05-08T19:28:48.514Z,4.30
2023-05-08T19:31:15.338Z,4.20
2023-05-08T19:33:42.306Z,4.03
2023-05-08T19:36:09.149Z,4.32
2023-05-08T19:38:37.491Z,4.10
2023-05-08T19:41:04.259Z,4.18
2023-05-08T19:43:31.157Z,4.15
2023-05-08T19:45:57.970Z,4.35
2023-05-08T19:48:24.926Z,4.70
2023-05-08T19:50:54.610Z,4.53
2023-05-08T19:53:22.751Z,4.75
2023-05-08T19:55:49.524Z,5.15
2023-05-08T19:58:17.424Z,4.85
2023-05-08T20:00:50.931Z,4.93
2023-05-08T20:03:18.215Z,4.75
2023-05-08T20:05:45.087Z,5.93
2023-05-08T20:08:11.986Z,4.53
2023-05-08T20:10:38.803Z,4.53
2023-05-08T20:13:05.882Z,4.85
2023-05-08T20:15:32.740Z,5.78
2023-05-08T20:17:59.777Z,4.75
2023-05-08T20:20:29.247Z,4.28
2023-05-08T20:22:56.412Z,4.78
2023-05-08T20:25:23.355Z,5.10
2023-05-08T20:27:50.118Z,4.72
2023-05-08T20:30:17.037Z,4.57
2023-05-08T20:32:43.952Z,4.60
2023-05-08T20:35:10.929Z,4.45
2023-05-08T20:37:48.153Z,4.30
2023-05-08T20:40:15.561Z,5.00
2023-05-08T20:42:42.588Z,4.75
2023-05-08T20:45:10.530Z,4.75
2023-05-08T20:47:37.476Z,4.18
2023-05-08T20:50:04.866Z,4.13
2023-05-08T20:52:32.295Z,4.68
2023-05-08T20:54:59.533Z,3.97
2023-05-08T20:57:26.838Z,4.18
2023-05-08T20:59:53.991Z,4.18
2023-05-08T21:02:21.158Z,4.40
2023-05-08T21:04:48.076Z,4.05
2023-05-08T21:07:14.966Z,4.28
2023-05-08T21:09:41.834Z,4.35
2023-05-08T21:12:09.780Z,3.85
2023-05-08T21:14:37.317Z,5.28
2023-05-08T21:17:04.284Z,4.22
2023-05-08T21:19:32.041Z,4.43
2023-05-08T21:21:58.909Z,4.57
2023-05-08T21:24:26.779Z,4.50
2023-05-08T21:26:53.864Z,4.88
2023-05-08T21:29:20.913Z,4.35
2023-05-08T21:31:47.714Z,5.18
2023-05-08T21:34:15.311Z,5.13
2023-05-08T21:36:42.237Z,4.93
2023-05-08T21:39:09.354Z,5.18
2023-05-08T21:41:36.220Z,4.22
2023-05-08T21:44:03.065Z,6.07
2023-05-08T21:46:29.983Z,4.88
2023-05-08T21:48:56.862Z,5.35
2023-05-08T21:51:23.720Z,5.53
2023-05-08T21:53:51.015Z,5.65
2023-05-08T21:56:17.908Z,5.35
2023-05-08T21:58:44.744Z,5.22
2023-05-08T22:01:12.126Z,5.20
2023-05-08T22:03:39.073Z,4.78
2023-05-08T22:06:06.284Z,5.28
2023-05-08T22:08:33.191Z,5.03
2023-05-08T22:11:00.032Z,4.68
2023-05-08T22:13:27.185Z,5.50
2023-05-08T22:15:54.206Z,5.07
2023-05-08T22:18:21.174Z,4.38
2023-05-08T22:20:48.063Z,5.30
2023-05-08T22:23:14.971Z,4.70
2023-05-08T22:25:41.903Z,4.60
2023-05-08T22:28:12.039Z,5.72
2023-05-08T22:30:38.857Z,4.45
2023-05-08T22:33:06.041Z,4.97
2023-05-08T22:35:39.156Z,4.50
2023-05-08T22:38:06.004Z,4.55
2023-05-08T22:40:33.527Z,5.35
2023-05-08T22:43:00.609Z,5.68
2023-05-08T22:45:27.937Z,4.53
2023-05-08T22:47:55.225Z,5.00
2023-05-08T22:50:22.138Z,4.85
2023-05-08T22:52:49.028Z,5.05
2023-05-08T22:55:16.581Z,3.83
2023-05-08T22:57:43.788Z,4.60
2023-05-08T23:00:11.416Z,4.13
2023-05-08T23:02:38.337Z,4.80
2023-05-08T23:05:06.719Z,5.50
2023-05-08T23:07:33.504Z,4.30
2023-05-08T23:10:00.315Z,5.60
2023-05-08T23:12:27.091Z,5.00
2023-05-08T23:14:53.995Z,5.60
2023-05-08T23:17:20.788Z,5.32
2023-05-08T23:19:47.739Z,4.57
2023-05-08T23:22:14.579Z,5.10
2023-05-08T23:24:41.409Z,5.22
2023-05-08T23:27:08.266Z,5.22
2023-05-08T23:29:35.002Z,5.63
2023-05-08T23:32:01.779Z,4.65
2023-05-08T23:34:28.586Z,4.88
2023-05-08T23:36:55.623Z,5.57
2023-05-08T23:39:22.556Z,5.95
2023-05-08T23:41:49.475Z,6.05
2023-05-08T23:44:17.381Z,5.40
2023-05-08T23:46:44.387Z,5.93
2023-05-08T23:49:11.378Z,5.47
2023-05-08T23:51:38.179Z,5.25
2023-05-08T23:54:05.637Z,6.28
2023-05-08T23:56:32.902Z,5.45
2023-05-08T23:58:59.635Z,4.57
